Time;durP1;ratioP1;P1;durP2;ratioP2;P2;SDS_P1;SDS_P2;PMS_P1;PMS_P2;Temp;Humidity;BMP_temperature;BMP_pressure;BME280_temperature;BME280_humidity;BME280_pressure;Samples;Min_cycle;Max_cycle;Signal;HPM_P1;HPM_P2
2021/04/15 00:04:13;;;;;;;14.27;9.07;;;;;;;;;;10286347;28;20295;-67
2021/04/15 00:09:18;;;;;;;15.80;9.03;;;;;;;;;;10276524;28;20600;-68
2021/04/15 00:14:21;;;;;;;15.13;8.80;;;;;;;;;;10285351;28;20254;-68
2021/04/15 00:19:23;;;;;;;14.87;8.37;;;;;;;;;;10285952;28;20223;-67
2021/04/15 00:24:25;;;;;;;15.17;8.23;;;;;;;;;;10286972;28;20231;-67
2021/04/15 00:29:26;;;;;;;13.73;7.93;;;;;;;;;;10279102;28;20234;-67
2021/04/15 00:34:28;;;;;;;13.67;8.03;;;;;;;;;;10286124;28;20711;-67
2021/04/15 00:39:30;;;;;;;14.07;7.27;;;;;;;;;;10295703;28;20220;-68
2021/04/15 00:44:32;;;;;;;13.17;7.60;;;;;;;;;;10280247;28;20315;-68
2021/04/15 00:49:35;;;;;;;13.13;8.03;;;;;;;;;;10280635;28;20249;-68
2021/04/15 00:54:41;;;;;;;12.00;7.40;;;;;;;;;;10284702;28;20518;-67
2021/04/15 00:59:42;;;;;;;14.20;7.30;;;;;;;;;;10273528;28;20226;-68
2021/04/15 01:04:44;;;;;;;14.63;8.40;;;;;;;;;;10265222;28;20582;-68
2021/04/15 01:09:46;;;;;;;14.83;8.40;;;;;;;;;;10284089;28;20545;-67
2021/04/15 01:14:56;;;;;;;16.50;9.47;;;;;;;;;;10278264;28;20192;-68
2021/04/15 01:20:13;;;;;;;14.60;8.90;;;;;;;;;;10282776;28;20342;-68
2021/04/15 01:25:24;;;;;;;14.10;8.30;;;;;;;;;;10278066;28;20191;-68
2021/04/15 01:30:31;;;;;;;15.73;9.07;;;;;;;;;;10280411;28;20613;-68
2021/04/15 01:35:35;;;;;;;16.60;10.00;;;;;;;;;;10277281;28;20209;-66
2021/04/15 01:40:39;;;;;;;16.70;10.40;;;;;;;;;;10283709;28;20247;-68
2021/04/15 01:45:41;;;;;;;19.80;11.07;;;;;;;;;;10282455;28;20221;-67
2021/04/15 01:50:45;;;;;;;20.17;11.00;;;;;;;;;;10284134;28;20208;-67
2021/04/15 01:55:48;;;;;;;19.97;11.60;;;;;;;;;;10282720;28;20270;-69
2021/04/15 02:00:55;;;;;;;20.27;12.57;;;;;;;;;;10277996;28;20208;-66
2021/04/15 02:05:58;;;;;;;22.47;13.27;;;;;;;;;;10283369;28;20200;-65
2021/04/15 02:11:03;;;;;;;23.37;13.63;;;;;;;;;;10280287;28;20652;-66
2021/04/15 02:16:07;;;;;;;23.07;13.67;;;;;;;;;;10280464;28;20191;-66
2021/04/15 02:21:11;;;;;;;22.47;13.43;;;;;;;;;;10278625;28;20285;-66
2021/04/15 02:26:14;;;;;;;20.40;11.63;;;;;;;;;;10282747;28;20211;-67
2021/04/15 02:31:21;;;;;;;18.83;11.10;;;;;;;;;;10280660;28;20672;-67
2021/04/15 02:36:25;;;;;;;17.90;10.77;;;;;;;;;;10279004;28;20302;-68
2021/04/15 02:41:28;;;;;;;17.67;10.17;;;;;;;;;;10282245;28;20211;-67
2021/04/15 02:46:35;;;;;;;17.40;9.83;;;;;;;;;;10282077;28;20199;-68
2021/04/15 02:51:40;;;;;;;17.47;8.93;;;;;;;;;;10283247;28;20231;-68
2021/04/15 02:56:44;;;;;;;15.57;8.13;;;;;;;;;;10287760;28;20693;-69
2021/04/15 03:01:48;;;;;;;14.73;7.90;;;;;;;;;;10288343;28;20660;-68
2021/04/15 03:06:51;;;;;;;12.53;7.20;;;;;;;;;;10283460;28;20651;-68
2021/04/15 03:11:54;;;;;;;12.10;6.53;;;;;;;;;;10305213;28;20674;-67
2021/04/15 03:16:59;;;;;;;13.63;6.50;;;;;;;;;;10286966;28;20203;-67
2021/04/15 03:22:03;;;;;;;13.90;6.57;;;;;;;;;;10285522;28;20221;-67
2021/04/15 03:27:07;;;;;;;11.47;5.93;;;;;;;;;;10288269;28;20278;-68
2021/04/15 03:32:15;;;;;;;11.63;6.23;;;;;;;;;;10284605;28;20224;-67
2021/04/15 03:37:18;;;;;;;13.07;6.07;;;;;;;;;;10288199;28;20579;-67
2021/04/15 03:42:23;;;;;;;12.73;5.73;;;;;;;;;;10286719;28;20308;-68
2021/04/15 03:47:30;;;;;;;9.90;5.63;;;;;;;;;;10286139;28;20272;-67
2021/04/15 03:52:36;;;;;;;11.70;5.70;;;;;;;;;;10286497;28;20192;-67
2021/04/15 03:57:40;;;;;;;13.80;6.27;;;;;;;;;;10285540;28;20288;-67
2021/04/15 04:02:44;;;;;;;14.27;6.37;;;;;;;;;;10280801;28;20216;-68
2021/04/15 04:07:47;;;;;;;12.93;6.70;;;;;;;;;;10286210;28;20321;-67
2021/04/15 04:13:07;;;;;;;14.03;6.53;;;;;;;;;;10284262;28;20199;-66
2021/04/15 04:18:12;;;;;;;12.43;6.20;;;;;;;;;;10282986;28;20265;-68
2021/04/15 04:23:23;;;;;;;12.97;6.30;;;;;;;;;;10284445;28;20710;-68
2021/04/15 04:28:28;;;;;;;12.17;5.57;;;;;;;;;;10284549;28;20228;-66
2021/04/15 04:33:36;;;;;;;11.43;5.73;;;;;;;;;;10282332;28;20254;-67
2021/04/15 04:38:38;;;;;;;11.73;6.17;;;;;;;;;;10275230;28;20612;-67
2021/04/15 04:43:42;;;;;;;13.17;5.63;;;;;;;;;;10279920;28;20586;-67
2021/04/15 04:48:50;;;;;;;12.90;6.07;;;;;;;;;;10281518;28;20286;-67
2021/04/15 04:53:52;;;;;;;11.57;5.27;;;;;;;;;;10281713;28;20254;-66
2021/04/15 04:58:54;;;;;;;11.83;5.30;;;;;;;;;;10283066;28;20242;-67
2021/04/15 05:04:00;;;;;;;12.93;5.43;;;;;;;;;;10279328;28;20290;-66
2021/04/15 05:09:05;;;;;;;13.10;5.47;;;;;;;;;;10289074;28;20239;-67
2021/04/15 05:14:07;;;;;;;14.70;5.63;;;;;;;;;;10275323;28;20218;-68
2021/04/15 05:19:10;;;;;;;12.77;4.87;;;;;;;;;;10280742;28;20254;-69
2021/04/15 05:24:14;;;;;;;12.27;5.47;;;;;;;;;;10273464;28;20223;-69
2021/04/15 05:29:21;;;;;;;11.30;5.10;;;;;;;;;;10268980;28;20228;-67
2021/04/15 05:34:25;;;;;;;11.40;4.90;;;;;;;;;;10274877;28;20210;-68
2021/04/15 05:39:27;;;;;;;11.50;5.27;;;;;;;;;;10270371;28;20219;-67
2021/04/15 05:44:33;;;;;;;10.90;4.40;;;;;;;;;;10270860;28;20306;-67
2021/04/15 05:49:38;;;;;;;14.57;5.53;;;;;;;;;;10273421;28;20243;-66
2021/04/15 05:54:40;;;;;;;10.57;5.10;;;;;;;;;;10272024;28;20294;-66
2021/04/15 05:59:49;;;;;;;10.13;5.07;;;;;;;;;;10268463;28;20666;-67
2021/04/15 06:04:54;;;;;;;17.57;5.70;;;;;;;;;;10270060;28;20604;-67
2021/04/15 06:09:56;;;;;;;11.67;5.40;;;;;;;;;;10270841;28;20299;-66
2021/04/15 06:14:59;;;;;;;11.33;5.80;;;;;;;;;;10268029;28;20230;-66
2021/04/15 06:20:06;;;;;;;12.03;5.70;;;;;;;;;;10269340;28;20216;-66
2021/04/15 06:25:11;;;;;;;12.20;6.17;;;;;;;;;;10268940;28;20227;-67
2021/04/15 06:30:14;;;;;;;11.33;5.40;;;;;;;;;;10271289;28;20342;-67
2021/04/15 06:35:19;;;;;;;14.83;5.53;;;;;;;;;;10267656;28;20200;-67
2021/04/15 06:40:45;;;;;;;11.10;5.47;;;;;;;;;;10267878;28;20307;-67
2021/04/15 06:45:57;;;;;;;11.03;5.27;;;;;;;;;;10269204;28;20231;-68
2021/04/15 06:51:15;;;;;;;12.03;5.80;;;;;;;;;;10267896;28;20627;-68
2021/04/15 06:56:22;;;;;;;10.23;5.40;;;;;;;;;;10268293;28;20246;-68
2021/04/15 07:01:33;;;;;;;10.83;5.53;;;;;;;;;;10275290;28;20231;-67
2021/04/15 07:06:46;;;;;;;12.20;5.50;;;;;;;;;;10270881;28;20254;-68
2021/04/15 07:11:54;;;;;;;12.87;5.73;;;;;;;;;;10268844;28;20576;-66
2021/04/15 07:17:09;;;;;;;10.87;6.00;;;;;;;;;;10269100;28;20952;-67
2021/04/15 07:22:29;;;;;;;12.90;5.73;;;;;;;;;;10266491;28;20624;-67
2021/04/15 07:27:37;;;;;;;9.03;5.30;;;;;;;;;;10268757;28;20208;-68
2021/04/15 07:32:52;;;;;;;10.83;5.63;;;;;;;;;;10269236;28;20196;-68
2021/04/15 07:38:15;;;;;;;8.47;5.23;;;;;;;;;;10277789;28;20317;-68
2021/04/15 07:43:34;;;;;;;10.70;5.27;;;;;;;;;;10270608;28;20262;-67
2021/04/15 07:48:54;;;;;;;13.30;7.97;;;;;;;;;;10274065;28;20261;-68
2021/04/15 07:54:19;;;;;;;12.03;6.13;;;;;;;;;;10273932;28;20197;-67
2021/04/15 07:59:30;;;;;;;10.13;5.67;;;;;;;;;;10270843;28;20258;-67
2021/04/15 08:04:49;;;;;;;11.27;5.57;;;;;;;;;;10273454;28;20204;-68
2021/04/15 08:09:55;;;;;;;9.40;5.20;;;;;;;;;;10271779;28;20212;-67
2021/04/15 08:15:17;;;;;;;11.50;6.33;;;;;;;;;;10272738;28;20735;-67
2021/04/15 08:20:30;;;;;;;12.77;5.68;;;;;;;;;;10272440;28;20219;-68
2021/04/15 08:25:40;;;;;;;9.43;6.00;;;;;;;;;;10274570;28;20352;-68
2021/04/15 08:30:57;;;;;;;9.38;6.15;;;;;;;;;;10269847;28;20231;-67
2021/04/15 08:36:04;;;;;;;23.33;20.88;;;;;;;;;;10267011;28;20601;-68
2021/04/15 08:41:11;;;;;;;9.00;5.97;;;;;;;;;;10271513;28;20244;-67
2021/04/15 08:46:17;;;;;;;7.93;5.50;;;;;;;;;;10273383;28;20202;-68
2021/04/15 08:51:33;;;;;;;9.73;5.60;;;;;;;;;;10273286;28;20212;-68
2021/04/15 08:56:36;;;;;;;8.38;5.32;;;;;;;;;;10263665;28;20302;-70
2021/04/15 09:01:44;;;;;;;7.38;5.35;;;;;;;;;;10275080;28;20255;-68
2021/04/15 09:06:51;;;;;;;9.18;5.85;;;;;;;;;;10264591;28;20199;-69
2021/04/15 09:12:09;;;;;;;8.65;5.70;;;;;;;;;;10271461;28;20215;-68
2021/04/15 09:17:14;;;;;;;9.95;5.68;;;;;;;;;;10268468;28;20254;-67
2021/04/15 09:22:27;;;;;;;10.43;6.80;;;;;;;;;;10269554;28;20219;-68
2021/04/15 09:27:38;;;;;;;10.30;5.60;;;;;;;;;;10272101;28;20527;-67
2021/04/15 09:32:48;;;;;;;10.07;5.30;;;;;;;;;;10266705;28;20262;-67
2021/04/15 09:38:15;;;;;;;9.77;5.30;;;;;;;;;;10268840;28;20223;-67
2021/04/15 09:43:20;;;;;;;9.57;4.73;;;;;;;;;;10275840;28;20211;-68
2021/04/15 09:48:30;;;;;;;8.50;4.57;;;;;;;;;;10270978;28;20645;-68
2021/04/15 09:53:42;;;;;;;7.97;4.70;;;;;;;;;;10275906;28;20219;-68
2021/04/15 09:58:51;;;;;;;7.90;4.20;;;;;;;;;;10273306;28;20220;-69
2021/04/15 10:03:58;;;;;;;7.63;4.10;;;;;;;;;;10266547;28;20338;-68
2021/04/15 10:09:21;;;;;;;8.37;4.53;;;;;;;;;;10279184;28;20320;-68
2021/04/15 10:14:30;;;;;;;8.77;4.80;;;;;;;;;;10246440;28;20258;-67
2021/04/15 10:19:56;;;;;;;8.57;5.50;;;;;;;;;;10281368;28;20691;-69
2021/04/15 10:25:03;;;;;;;7.60;5.15;;;;;;;;;;10278704;28;20239;-68
2021/04/15 10:30:23;;;;;;;6.93;4.40;;;;;;;;;;10279903;28;20235;-67
2021/04/15 10:35:44;;;;;;;7.20;4.67;;;;;;;;;;10275176;28;20583;-66
2021/04/15 10:40:53;;;;;;;6.77;4.30;;;;;;;;;;10290521;28;20274;-66
2021/04/15 10:46:10;;;;;;;8.43;4.37;;;;;;;;;;10282204;28;20274;-68
2021/04/15 10:51:19;;;;;;;8.37;4.73;;;;;;;;;;10259682;28;20289;-67
2021/04/15 10:56:33;;;;;;;7.17;4.50;;;;;;;;;;10283053;28;20211;-68
2021/04/15 11:01:35;;;;;;;9.13;4.63;;;;;;;;;;10278635;28;21367;-67
2021/04/15 11:06:39;;;;;;;3.57;2.40;;;;;;;;;;10271468;28;20261;-67
2021/04/15 11:11:50;;;;;;;8.13;4.00;;;;;;;;;;10288300;28;20299;-67
2021/04/15 11:16:53;;;;;;;8.47;4.40;;;;;;;;;;10283608;28;20192;-67
2021/04/15 11:21:56;;;;;;;7.33;3.93;;;;;;;;;;10281686;28;20223;-68
2021/04/15 11:26:59;;;;;;;7.03;3.97;;;;;;;;;;10286451;28;20299;-68
2021/04/15 11:32:01;;;;;;;6.97;4.13;;;;;;;;;;10278297;28;20219;-67
2021/04/15 11:37:19;;;;;;;8.10;4.33;;;;;;;;;;10287154;28;20211;-67
2021/04/15 11:42:22;;;;;;;7.33;4.17;;;;;;;;;;10283468;28;20246;-68
2021/04/15 11:47:25;;;;;;;7.20;3.70;;;;;;;;;;10302841;28;20247;-69
2021/04/15 11:52:29;;;;;;;5.83;3.87;;;;;;;;;;10274605;28;20192;-67
2021/04/15 11:57:33;;;;;;;5.70;3.40;;;;;;;;;;10279521;28;20268;-69
2021/04/15 12:02:37;;;;;;;5.80;3.63;;;;;;;;;;10279505;28;20746;-67
2021/04/15 12:07:40;;;;;;;5.78;3.60;;;;;;;;;;10280184;28;20270;-69
2021/04/15 12:12:46;;;;;;;4.30;3.10;;;;;;;;;;10283063;28;20188;-67
2021/04/15 12:17:53;;;;;;;5.43;3.40;;;;;;;;;;10283891;28;20619;-68
2021/04/15 12:22:57;;;;;;;4.63;3.00;;;;;;;;;;10283928;28;20212;-68
2021/04/15 12:28:06;;;;;;;4.47;3.17;;;;;;;;;;10284287;28;20212;-68
2021/04/15 12:33:12;;;;;;;5.60;3.33;;;;;;;;;;10280492;28;20287;-67
2021/04/15 12:38:15;;;;;;;5.13;3.30;;;;;;;;;;10284666;28;20753;-69
2021/04/15 12:43:19;;;;;;;5.47;3.13;;;;;;;;;;10269578;28;20594;-68
2021/04/15 12:48:24;;;;;;;6.60;3.27;;;;;;;;;;10284900;28;20265;-68
2021/04/15 12:53:25;;;;;;;7.13;3.60;;;;;;;;;;10283101;28;20270;-67
2021/04/15 12:58:29;;;;;;;7.32;3.92;;;;;;;;;;10280869;28;20297;-69
2021/04/15 13:03:32;;;;;;;5.97;3.75;;;;;;;;;;10282769;28;20232;-69
2021/04/15 13:08:51;;;;;;;6.88;3.63;;;;;;;;;;10286650;28;20750;-68
2021/04/15 13:13:55;;;;;;;7.60;3.40;;;;;;;;;;10279977;28;20188;-68
2021/04/15 13:18:56;;;;;;;6.33;3.50;;;;;;;;;;10285760;28;20219;-68
2021/04/15 13:23:58;;;;;;;5.47;3.07;;;;;;;;;;10282294;28;20540;-70
2021/04/15 13:29:10;;;;;;;6.13;3.43;;;;;;;;;;10279084;28;20239;-68
2021/04/15 13:34:13;;;;;;;5.50;3.20;;;;;;;;;;10280142;28;20227;-69
2021/04/15 13:39:35;;;;;;;6.53;3.30;;;;;;;;;;10274141;28;20612;-68
2021/04/15 13:45:09;;;;;;;6.27;3.50;;;;;;;;;;10275997;28;20592;-69
2021/04/15 13:50:12;;;;;;;6.07;3.87;;;;;;;;;;10192629;28;20308;-68
2021/04/15 13:55:30;;;;;;;5.47;3.40;;;;;;;;;;10281067;28;20196;-69
2021/04/15 14:00:37;;;;;;;4.57;2.80;;;;;;;;;;10282067;28;20218;-67
2021/04/15 14:05:47;;;;;;;5.20;3.13;;;;;;;;;;10280217;28;20231;-68
2021/04/15 14:11:21;;;;;;;7.43;3.43;;;;;;;;;;10277690;28;20305;-68
2021/04/15 14:16:24;;;;;;;4.90;2.63;;;;;;;;;;10270577;28;20740;-68
2021/04/15 14:21:28;;;;;;;4.77;2.80;;;;;;;;;;10269980;28;20216;-68
2021/04/15 14:26:30;;;;;;;4.57;2.70;;;;;;;;;;10267996;28;20597;-67
2021/04/15 14:31:37;;;;;;;5.47;2.83;;;;;;;;;;10269445;28;20730;-67
2021/04/15 14:36:39;;;;;;;5.63;2.60;;;;;;;;;;10267432;28;20199;-70
2021/04/15 14:41:42;;;;;;;5.23;2.90;;;;;;;;;;10272718;28;20211;-67
2021/04/15 14:46:44;;;;;;;4.67;2.30;;;;;;;;;;10277382;28;20223;-68
2021/04/15 14:51:47;;;;;;;8.20;3.13;;;;;;;;;;10279000;28;20636;-68
2021/04/15 14:56:49;;;;;;;6.20;2.90;;;;;;;;;;10275822;28;20305;-68
2021/04/15 15:01:52;;;;;;;4.53;2.80;;;;;;;;;;10287517;28;20240;-68
2021/04/15 15:06:54;;;;;;;6.97;2.90;;;;;;;;;;10284015;28;20278;-68
2021/04/15 15:11:57;;;;;;;6.67;3.47;;;;;;;;;;10284921;28;20224;-68
2021/04/15 15:17:01;;;;;;;5.33;2.73;;;;;;;;;;10287853;28;22025;-68
2021/04/15 15:22:04;;;;;;;5.37;2.60;;;;;;;;;;10282989;28;20225;-68
2021/04/15 15:27:12;;;;;;;5.03;2.60;;;;;;;;;;10288015;28;20279;-68
2021/04/15 15:32:16;;;;;;;4.57;2.50;;;;;;;;;;10282698;28;20771;-69
2021/04/15 15:37:19;;;;;;;5.43;2.93;;;;;;;;;;10286406;28;20211;-68
2021/04/15 15:42:44;;;;;;;5.27;3.10;;;;;;;;;;10282045;28;20215;-71
2021/04/15 15:47:48;;;;;;;7.20;3.00;;;;;;;;;;10278719;28;20571;-69
2021/04/15 15:52:50;;;;;;;6.57;3.13;;;;;;;;;;10277639;28;20200;-69
2021/04/15 15:57:55;;;;;;;7.87;3.70;;;;;;;;;;10285633;28;20227;-69
2021/04/15 16:03:05;;;;;;;6.97;2.83;;;;;;;;;;10284345;28;20671;-70
2021/04/15 16:08:11;;;;;;;6.27;2.90;;;;;;;;;;10270681;28;20354;-68
2021/04/15 16:13:33;;;;;;;7.13;3.33;;;;;;;;;;10280845;28;20200;-68
2021/04/15 16:18:36;;;;;;;5.90;2.97;;;;;;;;;;10279387;28;20228;-69
2021/04/15 16:23:41;;;;;;;6.27;3.07;;;;;;;;;;10278321;28;20200;-70
2021/04/15 16:28:43;;;;;;;6.40;3.10;;;;;;;;;;10283839;28;20247;-70
2021/04/15 16:33:46;;;;;;;6.77;2.83;;;;;;;;;;10276469;28;20199;-70
2021/04/15 16:38:48;;;;;;;6.00;3.00;;;;;;;;;;10283941;28;20207;-69
2021/04/15 16:43:49;;;;;;;6.67;2.90;;;;;;;;;;10272502;28;20220;-69
2021/04/15 16:48:52;;;;;;;8.57;3.20;;;;;;;;;;10275014;28;20223;-69
2021/04/15 16:53:54;;;;;;;5.43;2.87;;;;;;;;;;10280838;28;20572;-69
2021/04/15 16:58:56;;;;;;;6.90;3.30;;;;;;;;;;10282246;28;20219;-69
2021/04/15 17:03:58;;;;;;;8.17;3.50;;;;;;;;;;10272463;28;20310;-69
2021/04/15 17:09:01;;;;;;;6.83;3.00;;;;;;;;;;10280710;28;20220;-68
2021/04/15 17:14:02;;;;;;;8.17;2.77;;;;;;;;;;10274780;28;20198;-69
2021/04/15 17:19:05;;;;;;;7.53;2.90;;;;;;;;;;10272002;28;20246;-69
2021/04/15 17:24:08;;;;;;;7.03;3.47;;;;;;;;;;10275541;28;20544;-69
2021/04/15 17:29:11;;;;;;;5.90;3.00;;;;;;;;;;10281503;28;20275;-69
2021/04/15 17:34:14;;;;;;;8.13;2.90;;;;;;;;;;10277417;28;20207;-68
2021/04/15 17:39:17;;;;;;;7.63;3.10;;;;;;;;;;10270855;28;20636;-69
2021/04/15 17:44:18;;;;;;;5.87;2.80;;;;;;;;;;10272070;28;20207;-70
2021/04/15 17:49:29;;;;;;;6.80;3.43;;;;;;;;;;10281462;28;20239;-69
2021/04/15 17:54:32;;;;;;;7.37;3.73;;;;;;;;;;10272763;28;20258;-71
2021/04/15 17:59:34;;;;;;;7.33;3.40;;;;;;;;;;10278871;28;20223;-68
2021/04/15 18:04:36;;;;;;;5.93;2.90;;;;;;;;;;10275086;28;20254;-69
2021/04/15 18:09:38;;;;;;;8.67;3.57;;;;;;;;;;10275478;28;20216;-68
2021/04/15 18:15:01;;;;;;;9.73;3.83;;;;;;;;;;10277957;28;20184;-67
2021/04/15 18:20:05;;;;;;;7.63;3.20;;;;;;;;;;10280363;28;20211;-69
2021/04/15 18:25:07;;;;;;;6.43;3.10;;;;;;;;;;10283928;28;20303;-69
2021/04/15 18:30:09;;;;;;;7.40;3.40;;;;;;;;;;10269491;28;20278;-69
2021/04/15 18:35:12;;;;;;;7.27;3.37;;;;;;;;;;10286981;28;20212;-71
2021/04/15 18:40:19;;;;;;;6.70;3.33;;;;;;;;;;10274358;28;20228;-69
2021/04/15 18:45:21;;;;;;;7.37;3.17;;;;;;;;;;10276797;28;20299;-68
2021/04/15 18:50:26;;;;;;;7.60;3.10;;;;;;;;;;10271972;28;20224;-69
2021/04/15 18:55:28;;;;;;;6.60;3.47;;;;;;;;;;10279741;28;20219;-69
2021/04/15 19:00:31;;;;;;;7.53;3.20;;;;;;;;;;10287357;28;20285;-69
2021/04/15 19:05:34;;;;;;;7.03;3.30;;;;;;;;;;10280920;28;20239;-69
2021/04/15 19:10:37;;;;;;;6.60;3.03;;;;;;;;;;10281768;28;20274;-70
2021/04/15 19:15:39;;;;;;;6.63;3.30;;;;;;;;;;10285966;28;20700;-69
2021/04/15 19:20:42;;;;;;;9.83;3.87;;;;;;;;;;10290602;28;20219;-69
2021/04/15 19:25:44;;;;;;;7.33;3.20;;;;;;;;;;10276888;28;20236;-69
2021/04/15 19:30:46;;;;;;;7.20;3.00;;;;;;;;;;10292120;28;20230;-69
2021/04/15 19:35:48;;;;;;;7.33;3.40;;;;;;;;;;10289019;28;20192;-70
2021/04/15 19:40:51;;;;;;;6.53;2.93;;;;;;;;;;10296423;28;20222;-70
2021/04/15 19:45:53;;;;;;;6.87;3.70;;;;;;;;;;10290919;28;20223;-68
2021/04/15 19:50:57;;;;;;;7.57;3.30;;;;;;;;;;10284938;28;20763;-69
2021/04/15 19:55:59;;;;;;;8.87;3.70;;;;;;;;;;10287665;28;20251;-68
2021/04/15 20:01:01;;;;;;;6.70;3.40;;;;;;;;;;10287659;28;20302;-70
2021/04/15 20:06:05;;;;;;;9.87;3.47;;;;;;;;;;10289305;28;20567;-68
2021/04/15 20:11:07;;;;;;;8.70;4.10;;;;;;;;;;10284068;28;20262;-69
2021/04/15 20:16:10;;;;;;;8.67;4.23;;;;;;;;;;10291867;28;20262;-68
2021/04/15 20:21:13;;;;;;;7.93;4.20;;;;;;;;;;10285647;28;20227;-69
2021/04/15 20:26:32;;;;;;;8.33;4.50;;;;;;;;;;10278527;28;20215;-69
2021/04/15 20:31:34;;;;;;;8.07;3.90;;;;;;;;;;10284120;28;20433;-69
2021/04/15 20:36:37;;;;;;;7.80;4.30;;;;;;;;;;10274403;28;20196;-68
2021/04/15 20:41:39;;;;;;;7.73;4.00;;;;;;;;;;10277350;28;20212;-67
2021/04/15 20:46:40;;;;;;;7.77;4.23;;;;;;;;;;10277398;28;20286;-70
2021/04/15 20:51:44;;;;;;;9.00;4.43;;;;;;;;;;10281130;28;20584;-70
2021/04/15 20:56:45;;;;;;;7.13;3.90;;;;;;;;;;10279358;28;20188;-69
2021/04/15 21:01:47;;;;;;;7.47;3.90;;;;;;;;;;10284411;28;20766;-70
2021/04/15 21:06:50;;;;;;;8.17;3.93;;;;;;;;;;10278903;28;20208;-70
2021/04/15 21:11:52;;;;;;;8.00;4.32;;;;;;;;;;10274695;28;20462;-70
2021/04/15 21:16:55;;;;;;;6.83;3.87;;;;;;;;;;10281091;28;20237;-67
2021/04/15 21:21:58;;;;;;;6.73;3.67;;;;;;;;;;10277453;28;20231;-67
2021/04/15 21:26:59;;;;;;;7.30;3.87;;;;;;;;;;10270036;28;20224;-68
2021/04/15 21:32:01;;;;;;;7.50;3.70;;;;;;;;;;10281788;28;20549;-67
2021/04/15 21:37:04;;;;;;;6.60;3.50;;;;;;;;;;10270707;28;20625;-67
2021/04/15 21:42:06;;;;;;;7.40;3.83;;;;;;;;;;10285015;28;20232;-68
2021/04/15 21:47:07;;;;;;;6.77;3.30;;;;;;;;;;10278683;28;20220;-68
2021/04/15 21:52:10;;;;;;;7.53;3.50;;;;;;;;;;10283121;28;20236;-69
2021/04/15 21:57:12;;;;;;;6.93;3.27;;;;;;;;;;10282194;28;20191;-67
2021/04/15 22:02:13;;;;;;;6.30;3.30;;;;;;;;;;10283176;28;20230;-68
2021/04/15 22:07:16;;;;;;;7.10;3.37;;;;;;;;;;10291534;28;20239;-68
2021/04/15 22:12:18;;;;;;;6.40;3.43;;;;;;;;;;10277242;28;20259;-67
2021/04/15 22:17:19;;;;;;;7.63;3.20;;;;;;;;;;10277175;28;20702;-67
2021/04/15 22:22:23;;;;;;;9.33;3.37;;;;;;;;;;10281393;28;20233;-67
2021/04/15 22:27:25;;;;;;;6.07;3.33;;;;;;;;;;10278423;28;20281;-67
2021/04/15 22:32:27;;;;;;;7.67;3.53;;;;;;;;;;10271026;28;20314;-67
2021/04/15 22:37:30;;;;;;;6.60;3.50;;;;;;;;;;10272244;28;20258;-68
2021/04/15 22:42:31;;;;;;;7.17;3.30;;;;;;;;;;10276561;28;20302;-67
2021/04/15 22:47:35;;;;;;;6.23;3.30;;;;;;;;;;10274957;28;20200;-67
2021/04/15 22:52:38;;;;;;;7.43;3.33;;;;;;;;;;10273114;28;20239;-68
2021/04/15 22:57:40;;;;;;;4.83;2.83;;;;;;;;;;10275995;28;20274;-68
2021/04/15 23:02:41;;;;;;;6.80;3.40;;;;;;;;;;10273480;28;20678;-68
2021/04/15 23:07:44;;;;;;;6.83;3.43;;;;;;;;;;10279661;28;20196;-66
2021/04/15 23:12:45;;;;;;;6.53;3.20;;;;;;;;;;10283719;28;20798;-68
2021/04/15 23:17:48;;;;;;;8.33;3.13;;;;;;;;;;10288123;28;20576;-66
2021/04/15 23:22:51;;;;;;;6.60;3.43;;;;;;;;;;10282234;28;20656;-67
2021/04/15 23:27:54;;;;;;;6.40;3.27;;;;;;;;;;10284182;28;20219;-67
2021/04/15 23:32:55;;;;;;;6.67;3.17;;;;;;;;;;10282139;28;20236;-68
2021/04/15 23:37:58;;;;;;;7.47;3.20;;;;;;;;;;10289509;28;20294;-67
2021/04/15 23:43:00;;;;;;;6.00;3.00;;;;;;;;;;10285361;28;20295;-66
2021/04/15 23:48:02;;;;;;;6.37;3.33;;;;;;;;;;10286936;28;20224;-67
2021/04/15 23:53:04;;;;;;;5.73;3.20;;;;;;;;;;10282598;28;20653;-67
2021/04/15 23:58:06;;;;;;;6.90;3.27;;;;;;;;;;10277132;28;20222;-67
